Time;durP1;ratioP1;P1;durP2;ratioP2;P2;SDS_P1;SDS_P2;PMS_P1;PMS_P2;Temp;Humidity;BMP_temperature;BMP_pressure;BME280_temperature;BME280_humidity;BME280_pressure;Samples;Min_cycle;Max_cycle;Signal;HPM_P1;HPM_P2
2021/01/03 00:01:44;;;;;;;6.07;5.47;;;;;;;21.11;40.87;100819.31;5034780;28;20199;-60
2021/01/03 00:04:10;;;;;;;7.67;5.80;;;;;;;21.14;40.86;100821.66;5018537;28;20216;-66
2021/01/03 00:06:36;;;;;;;7.63;6.00;;;;;;;21.17;40.59;100816.88;5052199;28;20190;-67
2021/01/03 00:09:02;;;;;;;7.27;5.90;;;;;;;21.18;40.66;100824.88;5052077;28;20192;-62
2021/01/03 00:11:28;;;;;;;6.17;5.57;;;;;;;21.19;40.59;100817.53;5038271;28;20180;-60
2021/01/03 00:13:55;;;;;;;6.63;6.03;;;;;;;21.23;40.59;100821.59;5005864;28;20203;-60
2021/01/03 00:16:21;;;;;;;7.30;6.03;;;;;;;21.22;40.52;100820.75;5056261;28;20268;-60
2021/01/03 00:18:47;;;;;;;7.63;5.70;;;;;;;21.24;40.48;100815.16;5038559;28;20181;-59
2021/01/03 00:21:13;;;;;;;6.97;5.80;;;;;;;21.24;40.67;100817.88;5022090;28;20192;-59
2021/01/03 00:23:40;;;;;;;6.57;5.87;;;;;;;21.23;40.38;100821.59;5038666;28;20243;-60
2021/01/03 00:26:06;;;;;;;6.97;5.60;;;;;;;21.22;40.43;100809.00;5038932;28;20172;-61
2021/01/03 00:28:32;;;;;;;7.07;5.33;;;;;;;21.21;40.41;100813.59;5038486;28;20524;-62
2021/01/03 00:30:58;;;;;;;6.73;5.80;;;;;;;21.19;40.37;100810.22;5055950;28;20172;-63
2021/01/03 00:33:24;;;;;;;6.90;5.50;;;;;;;21.19;40.54;100809.38;5055855;28;20651;-61
2021/01/03 00:35:50;;;;;;;8.03;5.87;;;;;;;21.18;40.32;100807.69;5038432;28;20218;-61
2021/01/03 00:38:16;;;;;;;7.17;6.40;;;;;;;21.13;40.30;100800.91;5038195;28;20192;-61
2021/01/03 00:40:42;;;;;;;7.07;5.90;;;;;;;21.13;40.25;100800.91;5021866;28;20177;-61
2021/01/03 00:43:09;;;;;;;6.43;5.23;;;;;;;21.10;40.44;100793.13;5021675;28;20277;-60
2021/01/03 00:45:35;;;;;;;6.30;5.70;;;;;;;21.09;40.35;100796.03;5021547;28;20746;-67
2021/01/03 00:48:01;;;;;;;6.17;5.43;;;;;;;21.07;40.39;100790.78;5055542;28;20600;-67
2021/01/03 00:50:28;;;;;;;6.30;5.73;;;;;;;21.04;40.40;100788.38;5054762;28;20177;-67
2021/01/03 00:52:54;;;;;;;6.23;5.60;;;;;;;21.03;40.39;100799.47;5037335;28;20608;-67
2021/01/03 00:55:20;;;;;;;6.57;5.87;;;;;;;21.00;40.29;100795.22;5037407;28;20605;-62
2021/01/03 00:57:46;;;;;;;6.03;5.47;;;;;;;20.98;40.32;100794.56;5020852;28;20188;-67
2021/01/03 01:00:18;;;;;;;5.80;5.20;;;;;;;20.98;40.58;100791.00;5054465;28;20295;-67
2021/01/03 01:02:44;;;;;;;6.17;5.20;;;;;;;20.95;40.29;100796.81;5054240;28;20204;-62
2021/01/03 01:05:11;;;;;;;6.20;5.60;;;;;;;20.92;40.38;100795.31;5036800;28;20262;-61
2021/01/03 01:07:37;;;;;;;6.67;5.30;;;;;;;20.90;40.25;100797.34;5037046;28;20263;-61
2021/01/03 01:10:06;;;;;;;5.73;5.23;;;;;;;20.90;40.43;100796.50;5036814;28;20743;-62
2021/01/03 01:12:34;;;;;;;6.10;5.20;;;;;;;20.89;40.67;100798.38;5020440;28;20187;-61
2021/01/03 01:15:07;;;;;;;6.00;5.40;;;;;;;20.87;40.67;100795.00;5053944;28;20226;-62
2021/01/03 01:17:33;;;;;;;5.43;4.90;;;;;;;20.90;40.73;100796.50;5036587;28;20271;-62
2021/01/03 01:20:00;;;;;;;18.30;5.47;;;;;;;20.91;40.91;100798.19;5036802;28;20604;-63
2021/01/03 01:22:26;;;;;;;6.10;5.50;;;;;;;20.93;40.81;100798.88;5053404;28;20223;-61
2021/01/03 01:24:52;;;;;;;6.20;5.60;;;;;;;20.94;40.99;100798.69;5053980;28;20565;-61
2021/01/03 01:27:18;;;;;;;6.90;5.20;;;;;;;20.96;40.88;100793.91;5036322;28;20184;-61
2021/01/03 01:29:44;;;;;;;6.33;5.20;;;;;;;20.97;40.80;100790.16;5036664;28;20188;-62
2021/01/03 01:32:10;;;;;;;5.60;5.10;;;;;;;20.99;41.05;100804.41;5054046;28;20650;-66
2021/01/03 01:34:36;;;;;;;6.00;5.20;;;;;;;21.00;41.05;100795.22;5053985;28;20212;-66
2021/01/03 01:37:02;;;;;;;5.97;5.20;;;;;;;21.03;41.03;100797.56;5019903;28;20184;-62
2021/01/03 01:39:28;;;;;;;5.70;4.93;;;;;;;21.04;40.77;100793.81;5019963;28;20526;-67
2021/01/03 01:41:54;;;;;;;5.17;4.77;;;;;;;21.08;40.69;100797.06;5036173;28;20278;-63
2021/01/03 01:44:20;;;;;;;5.20;4.63;;;;;;;21.08;40.61;100797.91;5036260;28;20624;-66
2021/01/03 01:46:52;;;;;;;6.50;5.10;;;;;;;21.11;40.76;100788.53;5036160;28;20578;-63
2021/01/03 01:49:18;;;;;;;5.70;5.13;;;;;;;21.11;40.76;100789.38;5019768;28;20188;-62
2021/01/03 01:51:46;;;;;;;6.40;5.20;;;;;;;21.11;40.66;100786.66;5036039;28;20184;-63
2021/01/03 01:54:18;;;;;;;7.40;5.50;;;;;;;21.11;40.53;100792.09;5019276;28;20235;-62
2021/01/03 01:56:53;;;;;;;5.60;5.07;;;;;;;21.10;40.56;100793.13;5020330;28;20188;-63
2021/01/03 01:59:25;;;;;;;5.00;4.50;;;;;;;21.10;40.45;100793.13;5036002;28;20249;-61
2021/01/03 02:02:27;;;;;;;8.93;5.10;;;;;;;21.09;40.26;100788.72;5035760;28;20200;-61
2021/01/03 02:05:13;;;;;;;5.37;4.87;;;;;;;21.08;40.53;100788.91;5035579;28;20231;-62
2021/01/03 02:07:45;;;;;;;5.37;4.87;;;;;;;21.06;40.21;100794.53;5053431;28;20259;-67
2021/01/03 02:10:11;;;;;;;5.37;4.87;;;;;;;21.01;40.22;100786.03;5053356;28;20184;-67
2021/01/03 02:12:39;;;;;;;5.60;5.10;;;;;;;20.99;40.13;100785.38;5053256;28;20214;-62
2021/01/03 02:15:14;;;;;;;5.77;5.27;;;;;;;20.97;40.33;100792.03;5053010;28;20208;-61
2021/01/03 02:17:43;;;;;;;5.50;5.00;;;;;;;20.95;40.44;100803.09;5035471;28;20188;-61
2021/01/03 02:20:11;;;;;;;5.37;4.87;;;;;;;20.93;40.17;100798.88;5052963;28;20235;-61
2021/01/03 02:22:41;;;;;;;6.03;5.43;;;;;;;20.94;40.28;100801.41;5035283;28;20208;-62
2021/01/03 02:25:08;;;;;;;5.73;5.13;;;;;;;20.94;40.28;100804.13;5035718;28;20200;-60
2021/01/03 02:27:58;;;;;;;5.50;5.00;;;;;;;20.94;40.33;100801.41;5035053;28;20187;-62
2021/01/03 02:30:24;;;;;;;5.40;4.90;;;;;;;20.92;40.11;100795.31;5037995;28;20326;-62
2021/01/03 02:32:50;;;;;;;5.23;4.77;;;;;;;20.92;40.38;100797.19;5034854;28;20724;-62
2021/01/03 02:35:17;;;;;;;5.40;4.90;;;;;;;20.91;40.60;100795.47;5017874;28;20523;-62
2021/01/03 02:37:46;;;;;;;6.27;5.37;;;;;;;20.90;40.48;100797.34;5052645;28;20189;-62
2021/01/03 02:40:21;;;;;;;5.00;4.50;;;;;;;20.91;40.50;100799.06;5052557;28;20191;-62
2021/01/03 02:50:08;;;;;;;5.33;4.83;;;;;;;20.98;40.68;100789.13;4896607;28;20197;-62
2021/01/03 02:52:35;;;;;;;5.27;4.70;;;;;;;20.98;40.58;100791.84;4971399;28;20619;-61
2021/01/03 02:55:02;;;;;;;5.37;4.87;;;;;;;20.98;40.79;100789.13;4972517;28;20207;-67
2021/01/03 02:57:28;;;;;;;5.20;4.70;;;;;;;20.97;40.63;100779.28;5072256;28;20188;-67
2021/01/03 02:59:54;;;;;;;5.13;4.63;;;;;;;21.00;40.76;100786.22;5072095;28;20222;-65
2021/01/03 03:02:20;;;;;;;5.03;4.60;;;;;;;21.02;40.87;100782.28;5072010;28;20199;-60
2021/01/03 03:04:46;;;;;;;5.73;5.17;;;;;;;21.02;40.52;100785.00;5037722;28;20207;-60
2021/01/03 03:07:12;;;;;;;5.77;5.17;;;;;;;21.04;40.64;100782.94;5028185;28;20668;-61
2021/01/03 03:09:38;;;;;;;4.83;4.43;;;;;;;21.06;40.45;100780.06;5040956;28;20199;-66
2021/01/03 03:12:05;;;;;;;4.97;4.57;;;;;;;21.06;40.27;100783.63;5052124;28;20177;-65
2021/01/03 03:14:31;;;;;;;4.67;4.27;;;;;;;21.06;40.28;100780.06;5052022;28;20247;-65
2021/01/03 03:17:01;;;;;;;5.67;5.03;;;;;;;21.06;40.44;100783.63;5034406;28;20192;-65
2021/01/03 03:19:27;;;;;;;4.90;4.50;;;;;;;21.05;40.16;100775.63;5052015;28;20640;-65
2021/01/03 03:21:53;;;;;;;5.30;4.80;;;;;;;21.04;40.39;100785.66;5051794;28;20208;-65
2021/01/03 03:24:20;;;;;;;5.30;4.80;;;;;;;21.04;40.26;100782.09;5051803;28;20196;-65
2021/01/03 03:26:56;;;;;;;5.07;4.50;;;;;;;21.02;40.24;100781.44;5051764;28;20187;-65
2021/01/03 03:29:22;;;;;;;4.90;4.40;;;;;;;20.99;40.15;100777.22;5051546;28;20184;-66
2021/01/03 03:31:49;;;;;;;5.33;4.83;;;;;;;20.95;40.02;100781.31;5051598;28;20184;-62
2021/01/03 03:34:15;;;;;;;5.43;4.93;;;;;;;20.93;40.01;100772.50;5034031;28;20606;-62
2021/01/03 03:36:41;;;;;;;5.43;4.93;;;;;;;20.93;40.26;100772.50;5034152;28;20601;-62
2021/01/03 03:39:07;;;;;;;5.07;4.67;;;;;;;20.93;40.18;100775.22;5033893;28;20180;-62
2021/01/03 03:41:34;;;;;;;5.40;4.97;;;;;;;20.95;40.11;100775.88;5051407;28;20188;-62
2021/01/03 03:44:00;;;;;;;4.93;4.43;;;;;;;20.94;40.25;100766.03;5033862;28;20231;-62
2021/01/03 03:46:26;;;;;;;4.73;4.33;;;;;;;20.96;40.28;100771.28;5051234;28;20188;-67
2021/01/03 03:48:52;;;;;;;4.97;4.57;;;;;;;20.96;40.38;100768.56;5051620;28;20616;-66
2021/01/03 03:51:18;;;;;;;4.70;4.30;;;;;;;20.96;40.42;100763.97;5051987;28;20195;-66
2021/01/03 03:53:44;;;;;;;5.03;4.63;;;;;;;20.96;40.61;100765.84;5051954;28;20198;-65
2021/01/03 03:56:11;;;;;;;4.80;4.40;;;;;;;20.97;40.37;100756.66;5051579;28;20188;-62
2021/01/03 03:58:37;;;;;;;4.77;4.37;;;;;;;20.98;40.34;100759.19;5033898;28;20771;-67
2021/01/03 04:01:04;;;;;;;4.73;4.33;;;;;;;20.99;40.31;100758.16;5034014;28;20712;-62
2021/01/03 04:03:30;;;;;;;4.73;4.33;;;;;;;21.00;40.40;100756.28;5050928;28;20254;-62
2021/01/03 04:05:56;;;;;;;4.80;4.40;;;;;;;21.01;40.46;100752.53;5033722;28;20180;-61
2021/01/03 04:08:22;;;;;;;4.73;4.33;;;;;;;21.02;40.30;100752.34;5051116;28;20263;-67
2021/01/03 04:10:48;;;;;;;4.87;4.40;;;;;;;21.04;40.30;100755.72;5051113;28;20250;-67
2021/01/03 04:13:14;;;;;;;4.60;4.20;;;;;;;21.04;40.45;100758.44;5051151;28;20238;-66
2021/01/03 04:15:40;;;;;;;5.23;4.73;;;;;;;21.05;40.30;100756.56;5051212;28;20275;-65
2021/01/03 04:18:06;;;;;;;4.67;4.27;;;;;;;21.05;40.56;100759.28;5033768;28;20661;-65
2021/01/03 04:20:32;;;;;;;5.00;4.60;;;;;;;21.04;40.30;100758.44;5051147;28;20201;-60
2021/01/03 04:22:59;;;;;;;5.53;5.03;;;;;;;21.05;40.31;100760.13;5017107;28;20220;-61
2021/01/03 04:25:25;;;;;;;4.87;4.47;;;;;;;21.05;40.08;100762.00;5017283;28;20214;-61
2021/01/03 04:27:54;;;;;;;5.30;4.80;;;;;;;21.05;40.28;100762.84;5033654;28;20429;-60
2021/01/03 04:30:21;;;;;;;5.10;4.60;;;;;;;21.05;40.30;100764.75;5051090;28;20839;-66
2021/01/03 04:32:47;;;;;;;4.83;4.43;;;;;;;21.03;40.02;100767.66;5051014;28;20191;-65
2021/01/03 04:35:14;;;;;;;4.93;4.53;;;;;;;21.02;40.21;100759.66;5051114;28;20270;-65
2021/01/03 04:37:40;;;;;;;4.67;4.27;;;;;;;21.00;40.16;100761.72;5051084;28;20180;-60
2021/01/03 04:40:07;;;;;;;4.70;4.30;;;;;;;20.99;39.99;100763.59;5033447;28;20177;-60
2021/01/03 04:42:33;;;;;;;4.70;4.30;;;;;;;20.99;39.90;100770.91;5016924;28;20208;-60
2021/01/03 04:45:12;;;;;;;5.10;4.67;;;;;;;20.98;39.81;100775.50;5017014;28;20211;-66
2021/01/03 04:47:45;;;;;;;4.70;4.30;;;;;;;20.95;40.03;100775.88;5033364;28;20230;-66
2021/01/03 04:50:30;;;;;;;5.10;4.60;;;;;;;20.97;40.10;100772.97;5033373;28;20275;-66
2021/01/03 04:53:15;;;;;;;5.10;4.60;;;;;;;20.99;40.29;100768.19;5033386;28;20176;-65
2021/01/03 04:56:02;;;;;;;5.20;4.10;;;;;;;20.99;40.55;100771.75;5033232;28;20220;-67
2021/01/03 04:58:57;;;;;;;4.73;4.33;;;;;;;21.00;40.48;100773.47;5037555;28;20180;-67
2021/01/03 05:01:31;;;;;;;4.93;4.40;;;;;;;21.01;40.46;100763.41;5054593;28;20196;-67
2021/01/03 05:04:03;;;;;;;4.73;4.33;;;;;;;21.03;40.59;100770.38;5036700;28;20670;-67
2021/01/03 05:06:29;;;;;;;4.50;4.10;;;;;;;21.04;40.41;100763.88;5054426;28;20177;-65
2021/01/03 05:08:56;;;;;;;4.53;4.13;;;;;;;21.07;40.44;100766.28;5020529;28;20184;-65
2021/01/03 05:11:27;;;;;;;4.97;4.47;;;;;;;21.10;40.73;100771.34;5036773;28;20195;-60
2021/01/03 05:14:15;;;;;;;4.70;4.30;;;;;;;21.13;40.39;100767.41;5020983;28;20574;-62
2021/01/03 05:16:41;;;;;;;4.40;4.00;;;;;;;21.15;40.28;100773.50;5054253;28;20210;-65
2021/01/03 05:19:07;;;;;;;4.50;4.10;;;;;;;21.17;40.59;100774.16;5036423;28;20184;-66
2021/01/03 05:22:05;;;;;;;4.90;4.50;;;;;;;21.22;40.50;100773.63;5036617;28;20184;-67
2021/01/03 05:24:43;;;;;;;4.97;4.47;;;;;;;21.24;40.35;100768.88;4999600;28;20231;-62
2021/01/03 05:27:16;;;;;;;4.50;4.10;;;;;;;21.23;40.31;100773.44;5020086;28;20503;-62
2021/01/03 05:29:43;;;;;;;4.50;4.10;;;;;;;21.23;40.14;100775.31;5036640;28;20579;-63
2021/01/03 05:32:09;;;;;;;4.60;4.20;;;;;;;21.23;40.28;100772.59;5020112;28;20190;-62
2021/01/03 05:34:40;;;;;;;4.70;4.30;;;;;;;21.23;39.94;100767.13;5019953;28;20286;-63
2021/01/03 05:37:12;;;;;;;4.57;4.17;;;;;;;21.24;40.09;100768.88;5020607;28;20195;-63
2021/01/03 05:39:38;;;;;;;4.90;4.40;;;;;;;21.21;39.99;100774.66;5003834;28;20613;-63
2021/01/03 05:42:19;;;;;;;4.60;4.20;;;;;;;21.21;39.78;100780.09;5053708;28;20228;-61
2021/01/03 05:45:02;;;;;;;4.67;4.27;;;;;;;21.19;40.05;100774.00;5037134;28;20522;-61
2021/01/03 05:47:32;;;;;;;4.57;4.17;;;;;;;21.16;39.67;100767.03;5053674;28;20680;-66
2021/01/03 05:50:24;;;;;;;4.87;4.37;;;;;;;21.12;39.97;100777.44;5053438;28;20671;-66
2021/01/03 05:53:09;;;;;;;4.43;4.03;;;;;;;21.10;39.90;100775.94;5053618;28;20257;-66
2021/01/03 05:55:36;;;;;;;4.43;4.03;;;;;;;21.05;39.62;100784.63;5053446;28;20172;-65
2021/01/03 05:58:06;;;;;;;4.60;4.20;;;;;;;21.05;39.77;100775.63;5019533;28;20427;-67
2021/01/03 06:00:32;;;;;;;4.70;4.30;;;;;;;21.02;39.89;100779.56;5053187;28;20192;-66
2021/01/03 06:03:18;;;;;;;4.80;4.40;;;;;;;21.04;39.95;100784.81;5053200;28;20212;-60
2021/01/03 06:05:46;;;;;;;4.67;4.27;;;;;;;21.03;39.91;100783.13;5035864;28;20550;-67
2021/01/03 06:08:25;;;;;;;5.03;4.57;;;;;;;21.04;39.60;100788.38;5052893;28;20173;-67
2021/01/03 06:10:52;;;;;;;4.73;4.33;;;;;;;21.04;40.18;100791.09;5018991;28;20618;-62
2021/01/03 06:13:20;;;;;;;4.60;4.20;;;;;;;21.05;40.09;100792.78;5053164;28;20230;-61
2021/01/03 06:15:58;;;;;;;4.60;4.20;;;;;;;21.08;40.26;100797.06;5053425;28;20180;-66
2021/01/03 06:18:47;;;;;;;4.63;4.23;;;;;;;21.10;40.21;100792.28;5053111;28;20195;-68
2021/01/03 06:21:26;;;;;;;4.50;4.10;;;;;;;21.13;40.02;100791.91;5037153;28;20550;-59
2021/01/03 06:24:02;;;;;;;4.57;4.17;;;;;;;21.14;40.24;100791.72;5027119;28;20218;-59
2021/01/03 06:26:32;;;;;;;4.40;4.00;;;;;;;21.17;40.30;100786.94;5019737;28;20619;-60
2021/01/03 06:28:58;;;;;;;4.00;3.70;;;;;;;21.16;40.04;100791.53;5052903;28;20211;-61
2021/01/03 06:31:41;;;;;;;4.63;4.23;;;;;;;21.19;40.16;100793.03;5018856;28;20181;-62
2021/01/03 06:34:28;;;;;;;4.70;4.30;;;;;;;21.22;40.01;100792.66;5052698;28;20639;-65
2021/01/03 06:37:07;;;;;;;5.00;4.57;;;;;;;21.21;40.11;100794.53;5052777;28;20198;-60
2021/01/03 06:39:46;;;;;;;5.10;4.60;;;;;;;21.21;39.86;100796.44;5052535;28;20184;-66
2021/01/03 06:42:33;;;;;;;4.50;4.10;;;;;;;21.22;40.00;100798.13;5052577;28;20735;-60
2021/01/03 06:45:32;;;;;;;4.33;3.97;;;;;;;21.21;40.06;100796.44;5019686;28;20542;-60
2021/01/03 06:48:23;;;;;;;5.23;4.73;;;;;;;21.19;39.76;100791.16;5021038;28;20605;-60
2021/01/03 06:51:11;;;;;;;4.77;4.27;;;;;;;21.20;39.78;100797.47;5052399;28;20176;-60
2021/01/03 06:54:11;;;;;;;4.70;4.30;;;;;;;21.17;39.84;100800.56;5034851;28;20223;-61
2021/01/03 06:56:59;;;;;;;4.70;4.30;;;;;;;21.12;39.59;100796.50;5052279;28;20191;-61
2021/01/03 06:59:35;;;;;;;4.37;3.97;;;;;;;21.10;39.96;100801.28;5052305;28;20184;-60
2021/01/03 07:02:01;;;;;;;5.00;4.50;;;;;;;21.07;39.79;100796.22;5034681;28;22090;-61
2021/01/03 07:04:32;;;;;;;4.80;4.40;;;;;;;21.05;39.64;100798.25;5051985;28;20212;-66
2021/01/03 07:07:00;;;;;;;5.07;4.67;;;;;;;21.04;39.50;100798.44;5034862;28;20195;-67
2021/01/03 07:09:26;;;;;;;4.30;4.00;;;;;;;21.02;39.75;100793.16;5034664;28;20188;-67
2021/01/03 07:11:59;;;;;;;4.50;4.17;;;;;;;21.04;39.64;100793.81;5051899;28;20212;-60
2021/01/03 07:14:25;;;;;;;4.80;4.40;;;;;;;21.03;40.08;100805.75;5051924;28;20204;-62
2021/01/03 07:17:08;;;;;;;4.37;4.07;;;;;;;21.05;40.13;100800.97;5051912;28;20278;-62
2021/01/03 07:19:50;;;;;;;4.43;4.03;;;;;;;21.06;40.17;100802.69;5017824;28;20528;-66
2021/01/03 07:22:23;;;;;;;4.37;3.97;;;;;;;21.08;40.26;100808.78;5034287;28;20212;-61
2021/01/03 07:24:52;;;;;;;4.47;4.07;;;;;;;21.09;40.27;100801.47;5018206;28;20215;-61
2021/01/03 07:27:34;;;;;;;4.50;4.10;;;;;;;21.13;40.13;100802.78;5051845;28;20672;-60
2021/01/03 07:30:03;;;;;;;4.47;4.07;;;;;;;21.15;40.15;100798.84;5051589;28;20234;-61
2021/01/03 07:32:33;;;;;;;4.10;3.80;;;;;;;21.19;40.45;100801.22;5051720;28;20608;-61
2021/01/03 07:35:01;;;;;;;4.27;3.93;;;;;;;21.21;40.15;100807.31;5051719;28;20215;-61
2021/01/03 07:37:30;;;;;;;4.17;3.87;;;;;;;21.24;40.31;100812.41;5051732;28;20243;-62
2021/01/03 07:39:59;;;;;;;4.17;3.87;;;;;;;21.26;39.83;100804.91;5051561;28;20238;-61
2021/01/03 07:42:27;;;;;;;4.33;3.93;;;;;;;21.28;40.19;100809.13;5051254;28;20249;-62
2021/01/03 07:44:54;;;;;;;4.67;4.27;;;;;;;21.29;40.17;100801.81;5034431;28;20218;-65
2021/01/03 07:47:38;;;;;;;3.93;3.63;;;;;;;21.34;40.18;100802.13;5033895;28;20533;-68
2021/01/03 07:50:34;;;;;;;4.20;3.90;;;;;;;21.35;39.95;100809.28;5051411;28;20195;-62
2021/01/03 07:53:29;;;;;;;4.17;3.87;;;;;;;21.35;39.81;100806.56;5051365;28;20254;-62
2021/01/03 07:56:11;;;;;;;4.40;4.00;;;;;;;21.33;40.11;100809.47;5051485;28;20195;-62
2021/01/03 07:58:37;;;;;;;4.00;3.60;;;;;;;21.33;39.92;100811.34;5051496;28;20230;-62
2021/01/03 08:01:03;;;;;;;4.40;4.00;;;;;;;21.33;39.54;100804.03;5051242;28;20656;-65
2021/01/03 08:03:29;;;;;;;4.03;3.70;;;;;;;21.32;39.81;100805.06;5051114;28;20236;-60
2021/01/03 08:06:05;;;;;;;4.43;4.03;;;;;;;21.32;39.91;100806.94;5017587;28;20329;-63
2021/01/03 08:08:31;;;;;;;4.60;4.30;;;;;;;21.29;39.38;100812.72;5051329;28;20215;-65
2021/01/03 08:11:08;;;;;;;4.43;4.10;;;;;;;21.28;39.75;100808.28;5051285;28;20537;-65
2021/01/03 08:13:40;;;;;;;4.37;3.97;;;;;;;21.25;39.41;100808.66;5051068;28;20678;-60
2021/01/03 08:16:06;;;;;;;4.83;4.37;;;;;;;21.21;39.42;100810.88;5034591;28;20210;-62
2021/01/03 08:18:40;;;;;;;4.57;4.17;;;;;;;21.21;39.55;100812.75;5017116;28;20528;-65
2021/01/03 08:21:19;;;;;;;4.70;4.30;;;;;;;21.20;39.50;100816.50;5017647;28;20632;-67
2021/01/03 08:23:45;;;;;;;4.33;4.03;;;;;;;21.17;39.75;100820.44;5050836;28;20573;-67
2021/01/03 08:26:22;;;;;;;4.63;4.23;;;;;;;21.18;39.75;100813.13;5051481;28;20219;-66
2021/01/03 08:29:03;;;;;;;4.10;3.80;;;;;;;21.18;39.75;100818.56;5033592;28;20176;-66
2021/01/03 08:31:29;;;;;;;3.93;3.63;;;;;;;21.19;39.62;100829.28;5035405;28;20180;-61
2021/01/03 08:33:56;;;;;;;4.07;3.77;;;;;;;21.22;40.01;100830.78;5037649;28;20203;-66
2021/01/03 08:36:31;;;;;;;4.20;3.90;;;;;;;21.23;39.98;100835.19;5054869;28;20218;-66
2021/01/03 08:39:04;;;;;;;4.20;3.90;;;;;;;21.25;39.96;100835.88;5055009;28;20211;-67
2021/01/03 08:41:30;;;;;;;4.50;4.10;;;;;;;21.24;40.11;100835.03;5037275;28;20192;-62
2021/01/03 08:43:57;;;;;;;4.00;3.70;;;;;;;21.27;39.96;100834.69;5037239;28;20219;-66
2021/01/03 08:46:27;;;;;;;4.27;3.97;;;;;;;21.30;40.27;100831.63;5020709;28;20188;-64
2021/01/03 08:49:05;;;;;;;4.50;4.10;;;;;;;21.33;39.98;100833.13;5054820;28;20180;-65
2021/01/03 08:51:31;;;;;;;4.33;4.03;;;;;;;21.34;40.12;100835.66;5054826;28;20180;-65
2021/01/03 08:54:01;;;;;;;4.17;3.83;;;;;;;21.37;39.76;100829.00;5020725;28;20565;-60
2021/01/03 08:56:31;;;;;;;4.00;3.70;;;;;;;21.40;40.04;100839.53;5021109;28;20279;-62
2021/01/03 08:58:57;;;;;;;3.90;3.60;;;;;;;21.40;39.89;100834.06;5054456;28;20243;-62
2021/01/03 09:01:23;;;;;;;3.70;3.40;;;;;;;21.41;39.76;100843.94;5054451;28;20196;-67
2021/01/03 09:03:49;;;;;;;3.90;3.60;;;;;;;21.43;39.74;100839.16;5054155;28;21137;-67
2021/01/03 09:06:15;;;;;;;3.93;3.63;;;;;;;21.42;39.77;100842.91;5020483;28;20208;-65
2021/01/03 09:08:41;;;;;;;3.70;3.40;;;;;;;21.42;39.55;100843.75;5020617;28;20188;-60
2021/01/03 09:11:26;;;;;;;3.70;3.40;;;;;;;21.44;39.56;100846.28;5036881;28;20182;-60
2021/01/03 09:14:02;;;;;;;3.77;3.47;;;;;;;21.43;39.42;100852.75;5036565;28;20211;-60
2021/01/03 09:16:53;;;;;;;3.90;3.60;;;;;;;21.42;39.73;100842.91;5021029;28;20180;-60
2021/01/03 09:19:26;;;;;;;4.33;3.93;;;;;;;21.40;39.33;100851.25;5037911;28;20189;-66
2021/01/03 09:21:57;;;;;;;4.10;3.80;;;;;;;21.38;39.20;100852.47;5036667;28;20187;-60
2021/01/03 09:24:25;;;;;;;3.83;3.53;;;;;;;21.35;39.51;100863.75;5020621;28;20200;-66
2021/01/03 09:26:54;;;;;;;3.93;3.63;;;;;;;21.31;39.49;100855.09;5036831;28;20180;-60
2021/01/03 09:29:26;;;;;;;3.70;3.40;;;;;;;21.28;39.47;100863.59;5036921;28;20554;-62
2021/01/03 09:32:10;;;;;;;4.10;3.80;;;;;;;21.26;39.50;100856.63;5054039;28;20211;-67
2021/01/03 09:34:51;;;;;;;3.50;3.27;;;;;;;21.25;39.56;100865.84;5053653;28;20220;-67
2021/01/03 09:37:21;;;;;;;3.80;3.50;;;;;;;21.23;39.30;100859.69;5036328;28;20192;-67
2021/01/03 09:40:01;;;;;;;4.00;3.70;;;;;;;21.23;39.35;100859.69;5052442;28;20221;-67
2021/01/03 09:42:39;;;;;;;3.47;3.23;;;;;;;21.23;39.75;100863.28;5051524;28;20196;-60
2021/01/03 09:45:48;;;;;;;3.70;3.40;;;;;;;21.24;39.74;100867.72;5051830;28;20208;-65
2021/01/03 09:48:47;;;;;;;3.63;3.33;;;;;;;21.26;39.77;100871.09;5052034;28;20207;-65
2021/01/03 09:51:19;;;;;;;2.93;2.73;;;;;;;21.24;39.94;100865.00;5003149;28;20278;-66
2021/01/03 09:53:45;;;;;;;3.60;3.30;;;;;;;21.25;39.96;100868.56;5051492;28;20266;-68
2021/01/03 09:56:30;;;;;;;3.80;3.50;;;;;;;21.28;39.76;100862.75;5018880;28;20193;-67
2021/01/03 09:58:56;;;;;;;3.53;3.23;;;;;;;21.29;39.73;100864.44;5019762;28;20185;-62
2021/01/03 10:01:26;;;;;;;3.30;3.10;;;;;;;21.32;39.76;100869.56;5036488;28;20306;-62
2021/01/03 10:03:52;;;;;;;3.37;3.07;;;;;;;21.32;39.81;100864.09;5002126;28;20221;-62
2021/01/03 10:06:33;;;;;;;3.30;3.10;;;;;;;21.37;39.79;100861.66;5036564;28;20181;-62
2021/01/03 10:09:11;;;;;;;3.20;3.00;;;;;;;21.37;39.70;100861.66;5053302;28;20187;-62
2021/01/03 10:11:37;;;;;;;2.97;2.77;;;;;;;21.38;40.04;100860.66;5053870;28;20188;-63
2021/01/03 10:14:09;;;;;;;3.00;2.80;;;;;;;21.41;39.97;100863.00;5054113;28;20234;-62
2021/01/03 10:16:35;;;;;;;3.17;2.97;;;;;;;21.43;39.89;100860.94;5054005;28;20298;-61
2021/01/03 10:19:12;;;;;;;3.20;2.97;;;;;;;21.47;40.23;100856.81;5019858;28;20185;-61
2021/01/03 10:21:39;;;;;;;3.03;2.83;;;;;;;21.49;40.21;100860.19;5036733;28;20237;-66
2021/01/03 10:24:23;;;;;;;3.00;2.80;;;;;;;21.55;40.08;100859.47;5019744;28;20224;-59
2021/01/03 10:27:05;;;;;;;3.00;2.80;;;;;;;21.58;40.20;100856.38;5037393;28;20208;-61
2021/01/03 10:29:31;;;;;;;3.13;2.93;;;;;;;21.60;40.32;100850.75;5054017;28;20192;-67
2021/01/03 10:31:57;;;;;;;2.93;2.73;;;;;;;21.64;40.10;100862.97;5036354;28;20227;-62
2021/01/03 10:34:24;;;;;;;3.03;2.83;;;;;;;21.68;40.28;100853.38;5053780;28;20240;-67
2021/01/03 10:36:53;;;;;;;3.00;2.80;;;;;;;21.72;40.07;100855.53;5053771;28;20188;-65
2021/01/03 10:39:19;;;;;;;2.73;2.53;;;;;;;21.76;39.99;100861.47;5036072;28;20207;-65
2021/01/03 10:41:46;;;;;;;2.90;2.70;;;;;;;21.80;40.07;100861.97;5053712;28;20639;-65
2021/01/03 10:44:12;;;;;;;2.90;2.70;;;;;;;21.84;40.06;100858.69;5053673;28;20220;-65
2021/01/03 10:46:39;;;;;;;3.00;2.80;;;;;;;21.88;40.12;100860.00;5036023;28;20253;-62
2021/01/03 10:49:05;;;;;;;2.97;2.77;;;;;;;21.92;40.05;100860.47;5053394;28;20267;-67
2021/01/03 10:51:36;;;;;;;2.63;2.43;;;;;;;21.98;40.31;100849.66;5053408;28;20270;-60
2021/01/03 10:54:03;;;;;;;2.60;2.40;;;;;;;22.01;40.03;100856.63;5018867;28;20204;-65
2021/01/03 10:56:29;;;;;;;2.60;2.40;;;;;;;22.05;39.96;100850.66;5053006;28;20231;-65
2021/01/03 10:58:55;;;;;;;2.70;2.50;;;;;;;22.09;39.88;100851.13;5053194;28;20192;-65
2021/01/03 11:01:21;;;;;;;2.60;2.40;;;;;;;22.13;40.22;100852.44;5053106;28;20216;-63
2021/01/03 11:03:48;;;;;;;2.60;2.40;;;;;;;22.18;40.08;100854.59;5052747;28;20220;-63
2021/01/03 11:06:14;;;;;;;2.73;2.53;;;;;;;22.20;39.88;100845.19;5053185;28;20604;-63
2021/01/03 11:08:40;;;;;;;2.77;2.57;;;;;;;22.24;40.02;100846.50;5053091;28;20185;-66
2021/01/03 11:11:06;;;;;;;2.20;2.10;;;;;;;22.27;39.95;100837.94;5053079;28;20206;-67
2021/01/03 11:13:33;;;;;;;2.20;2.00;;;;;;;22.29;39.89;100835.88;5053128;28;20200;-67
2021/01/03 11:15:59;;;;;;;2.30;2.20;;;;;;;22.32;39.78;100830.03;5035672;28;20395;-67
2021/01/03 11:18:25;;;;;;;2.50;2.30;;;;;;;22.34;39.62;100836.16;5052948;28;20206;-67
2021/01/03 11:20:52;;;;;;;2.77;2.57;;;;;;;22.36;39.80;100831.34;5035429;28;20693;-68
2021/01/03 11:23:19;;;;;;;2.43;2.33;;;;;;;22.40;39.76;100830.97;5052629;28;20243;-60
2021/01/03 11:25:48;;;;;;;2.60;2.40;;;;;;;22.44;39.66;100826.81;5035251;28;20196;-61
2021/01/03 11:28:14;;;;;;;2.20;2.00;;;;;;;22.44;39.49;100829.53;5035442;28;20204;-66
2021/01/03 11:30:40;;;;;;;2.20;2.10;;;;;;;22.47;39.77;100819.09;5052733;28;20270;-62
2021/01/03 11:33:06;;;;;;;2.10;2.00;;;;;;;22.49;39.71;100824.38;5052667;28;20192;-62
2021/01/03 11:35:32;;;;;;;2.20;2.10;;;;;;;22.52;39.60;100818.53;5052461;28;20302;-62
2021/01/03 11:37:59;;;;;;;2.30;2.20;;;;;;;22.54;39.76;100824.66;5030780;28;20196;-63
2021/01/03 11:40:25;;;;;;;2.23;2.13;;;;;;;22.57;39.73;100805.16;5043679;28;20200;-63
2021/01/03 11:42:51;;;;;;;2.50;2.30;;;;;;;22.60;39.88;100807.50;5048926;28;20281;-63
2021/01/03 11:45:19;;;;;;;2.30;2.20;;;;;;;22.64;39.98;100811.53;5049481;28;20238;-63
2021/01/03 11:47:45;;;;;;;2.20;2.10;;;;;;;22.67;39.83;100805.69;5037736;28;20522;-63
2021/01/03 11:50:14;;;;;;;2.20;2.00;;;;;;;22.71;40.13;100811.59;5056440;28;20196;-63